createdAt,value
2018-09-20T00:00:24.210Z,20.62
2018-09-20T00:02:52.478Z,20.61
2018-09-20T00:05:20.794Z,20.60
2018-09-20T00:07:49.067Z,20.59
2018-09-20T00:10:17.329Z,20.60
2018-09-20T00:12:45.584Z,20.60
2018-09-20T00:15:13.887Z,20.58
2018-09-20T00:17:42.198Z,20.56
2018-09-20T00:20:10.511Z,20.55
2018-09-20T00:22:38.797Z,20.55
2018-09-20T00:25:07.106Z,20.54
2018-09-20T00:27:35.401Z,20.54
2018-09-20T00:30:03.960Z,20.54
2018-09-20T00:32:32.250Z,20.55
2018-09-20T00:35:00.535Z,20.55
2018-09-20T00:37:28.806Z,20.51
2018-09-20T00:39:57.119Z,20.47
2018-09-20T00:42:25.429Z,20.44
2018-09-20T00:44:53.719Z,20.45
2018-09-20T00:47:21.980Z,20.45
2018-09-20T00:49:50.415Z,20.43
2018-09-20T00:52:18.666Z,20.42
2018-09-20T00:54:46.946Z,20.39
2018-09-20T00:57:15.241Z,20.35
2018-09-20T00:59:43.533Z,20.33
2018-09-20T01:02:11.835Z,20.31
2018-09-20T01:04:40.105Z,20.29
2018-09-20T01:07:08.404Z,20.30
2018-09-20T01:09:36.725Z,20.30
2018-09-20T01:12:05.009Z,20.29
2018-09-20T01:14:33.276Z,20.28
2018-09-20T01:17:01.529Z,20.27
2018-09-20T01:19:29.813Z,20.25
2018-09-20T01:21:58.127Z,20.23
2018-09-20T01:24:26.386Z,20.19
2018-09-20T01:26:54.697Z,20.13
2018-09-20T01:29:22.965Z,20.08
2018-09-20T01:31:51.237Z,20.05
2018-09-20T01:34:19.522Z,20.01
2018-09-20T01:36:47.830Z,19.99
2018-09-20T01:39:16.887Z,20.00
2018-09-20T01:41:45.149Z,19.98
2018-09-20T01:44:14.124Z,19.96
2018-09-20T01:46:42.694Z,19.93
2018-09-20T01:49:11.030Z,19.89
2018-09-20T01:51:39.447Z,19.87
2018-09-20T01:54:07.745Z,19.85
2018-09-20T01:56:36.034Z,19.84
2018-09-20T01:59:04.330Z,19.82
2018-09-20T02:01:32.657Z,19.81
2018-09-20T02:04:00.946Z,19.78
2018-09-20T02:06:29.217Z,19.75
2018-09-20T02:08:57.480Z,19.71
2018-09-20T02:11:25.779Z,19.70
2018-09-20T02:13:54.124Z,19.69
2018-09-20T02:16:22.432Z,19.66
2018-09-20T02:18:50.685Z,19.64
2018-09-20T02:21:18.919Z,19.62
2018-09-20T02:23:47.204Z,19.61
2018-09-20T02:26:15.453Z,19.58
2018-09-20T02:28:43.767Z,19.58
2018-09-20T02:31:12.050Z,19.58
2018-09-20T02:33:40.349Z,19.57
2018-09-20T02:36:08.732Z,19.55
2018-09-20T02:38:37.041Z,19.55
2018-09-20T02:41:05.335Z,19.54
2018-09-20T02:43:33.663Z,19.53
2018-09-20T02:46:01.934Z,19.50
2018-09-20T02:48:30.524Z,19.47
2018-09-20T02:50:59.196Z,19.45
2018-09-20T02:53:27.477Z,19.42
2018-09-20T02:55:55.766Z,19.41
2018-09-20T02:58:24.046Z,19.39
2018-09-20T03:00:52.310Z,19.38
2018-09-20T03:03:20.598Z,19.36
2018-09-20T03:05:48.854Z,19.33
2018-09-20T03:08:17.212Z,19.32
2018-09-20T03:10:45.512Z,19.29
2018-09-20T03:13:13.793Z,19.26
2018-09-20T03:15:42.138Z,19.26
2018-09-20T03:18:10.433Z,19.23
2018-09-20T03:20:38.723Z,19.24
2018-09-20T03:23:06.984Z,19.25
2018-09-20T03:25:35.322Z,19.28
2018-09-20T03:28:03.646Z,19.30
2018-09-20T03:30:32.099Z,19.31
2018-09-20T03:33:00.259Z,19.31
2018-09-20T03:35:28.537Z,19.27
2018-09-20T03:37:56.957Z,19.26
2018-09-20T03:40:25.234Z,19.26
2018-09-20T03:42:53.510Z,19.27
2018-09-20T03:45:21.754Z,19.29
2018-09-20T03:47:50.029Z,19.28
2018-09-20T03:50:18.323Z,19.23
2018-09-20T03:52:46.614Z,19.18
2018-09-20T03:55:14.893Z,19.16
2018-09-20T03:57:43.364Z,19.18
2018-09-20T04:00:11.667Z,19.20
2018-09-20T04:02:40.069Z,19.21
2018-09-20T04:05:08.351Z,19.24
2018-09-20T04:07:36.620Z,19.23
2018-09-20T04:10:05.078Z,19.23
2018-09-20T04:12:33.374Z,19.22
2018-09-20T04:15:01.681Z,19.16
2018-09-20T04:17:30.073Z,19.13
2018-09-20T04:19:58.325Z,19.08
2018-09-20T04:22:26.595Z,19.06
2018-09-20T04:24:54.912Z,19.06
2018-09-20T04:27:23.226Z,19.04
2018-09-20T04:29:51.508Z,19.03
2018-09-20T04:32:19.799Z,19.01
2018-09-20T04:34:48.094Z,19.00
2018-09-20T04:37:16.353Z,19.00
2018-09-20T04:39:44.655Z,18.98
2018-09-20T04:42:12.940Z,19.00
2018-09-20T04:44:41.230Z,19.00
2018-09-20T04:47:09.521Z,19.00
2018-09-20T04:49:37.832Z,18.98
2018-09-20T04:52:06.560Z,18.96
2018-09-20T04:54:34.838Z,18.96
2018-09-20T04:57:03.378Z,18.74
2018-09-20T04:59:31.657Z,18.95
2018-09-20T05:02:00.067Z,18.94
2018-09-20T05:04:31.141Z,18.94
2018-09-20T05:06:59.534Z,18.92
2018-09-20T05:09:27.909Z,18.92
2018-09-20T05:11:56.183Z,18.91
2018-09-20T05:14:24.502Z,18.92
2018-09-20T05:16:52.858Z,18.96
2018-09-20T05:19:21.117Z,18.96
2018-09-20T05:21:49.341Z,18.97
2018-09-20T05:24:17.619Z,18.97
2018-09-20T05:26:45.957Z,18.99
2018-09-20T05:29:14.225Z,19.00
2018-09-20T05:31:42.619Z,19.01
2018-09-20T05:34:10.911Z,19.03
2018-09-20T05:36:39.234Z,19.05
2018-09-20T05:39:27.660Z,19.06
2018-09-20T05:41:56.027Z,19.08
2018-09-20T05:44:24.335Z,19.07
2018-09-20T05:46:52.682Z,19.10
2018-09-20T05:49:20.973Z,19.12
2018-09-20T05:51:49.269Z,19.12
2018-09-20T05:54:17.555Z,19.12
2018-09-20T05:56:45.789Z,19.12
2018-09-20T05:59:14.119Z,19.14
2018-09-20T06:01:42.326Z,19.12
2018-09-20T06:04:10.601Z,19.16
2018-09-20T06:06:41.975Z,19.16
2018-09-20T06:09:10.635Z,19.18
2018-09-20T06:11:38.807Z,19.19
2018-09-20T06:14:07.032Z,19.18
2018-09-20T06:16:35.203Z,19.18
2018-09-20T06:19:03.359Z,19.18
2018-09-20T06:21:31.534Z,19.20
2018-09-20T06:23:59.718Z,19.19
2018-09-20T06:26:27.954Z,19.21
2018-09-20T06:28:56.153Z,19.23
2018-09-20T06:31:24.334Z,19.26
2018-09-20T06:33:52.519Z,19.28
2018-09-20T06:36:20.723Z,19.29
2018-09-20T06:38:48.907Z,19.32
2018-09-20T06:41:17.114Z,19.35
2018-09-20T06:43:45.424Z,19.37
2018-09-20T06:46:13.644Z,19.42
2018-09-20T06:48:41.807Z,19.44
2018-09-20T06:51:10.015Z,19.51
2018-09-20T06:53:38.239Z,19.55
2018-09-20T06:56:06.425Z,19.60
2018-09-20T06:58:34.623Z,19.64
2018-09-20T07:01:02.819Z,19.67
2018-09-20T07:03:31.008Z,19.73
2018-09-20T07:05:59.174Z,19.78
2018-09-20T07:08:27.348Z,19.81
2018-09-20T07:10:55.543Z,19.84
2018-09-20T07:13:23.758Z,19.86
2018-09-20T07:15:51.972Z,19.88
2018-09-20T07:18:20.168Z,19.92
2018-09-20T07:20:48.331Z,19.96
2018-09-20T07:23:16.598Z,20.01
2018-09-20T07:25:44.906Z,20.06
2018-09-20T07:28:13.004Z,20.11
2018-09-20T07:30:41.176Z,20.16
2018-09-20T07:33:09.348Z,20.21
2018-09-20T07:35:37.534Z,20.26
2018-09-20T07:38:05.944Z,20.33
2018-09-20T07:40:34.111Z,20.41
2018-09-20T07:43:02.283Z,20.47
2018-09-20T07:45:30.469Z,20.51
2018-09-20T07:47:58.668Z,20.55
2018-09-20T07:50:26.877Z,20.60
2018-09-20T07:52:55.227Z,20.63
2018-09-20T07:55:23.394Z,20.68
2018-09-20T07:57:51.580Z,20.72
2018-09-20T08:00:19.771Z,20.75
2018-09-20T08:02:47.964Z,20.80
2018-09-20T08:05:16.174Z,20.84
2018-09-20T08:07:44.384Z,20.89
2018-09-20T08:10:12.578Z,20.94
2018-09-20T08:12:40.834Z,20.98
2018-09-20T08:15:12.912Z,21.01
2018-09-20T08:17:41.124Z,21.03
2018-09-20T08:20:09.374Z,21.03
2018-09-20T08:22:37.583Z,21.02
2018-09-20T08:25:05.795Z,21.03
2018-09-20T08:27:33.955Z,21.05
2018-09-20T08:30:02.135Z,21.08
2018-09-20T08:32:30.346Z,21.10
2018-09-20T08:34:58.522Z,21.14
2018-09-20T08:37:26.752Z,21.17
2018-09-20T08:39:54.870Z,21.20
2018-09-20T08:42:23.122Z,21.23
2018-09-20T08:44:51.281Z,21.25
2018-09-20T08:47:19.462Z,21.29
2018-09-20T08:49:47.664Z,21.33
2018-09-20T08:52:15.843Z,21.36
2018-09-20T08:54:44.035Z,21.40
2018-09-20T08:57:12.356Z,21.44
2018-09-20T08:59:40.468Z,21.48
2018-09-20T09:02:08.856Z,21.53
2018-09-20T09:04:37.109Z,21.57
2018-09-20T09:07:05.242Z,21.62
2018-09-20T09:09:33.475Z,21.65
2018-09-20T09:12:01.685Z,21.69
2018-09-20T09:14:29.891Z,21.72
2018-09-20T09:16:58.109Z,21.74
2018-09-20T09:19:26.293Z,21.80
2018-09-20T09:21:54.511Z,21.88
2018-09-20T09:24:22.696Z,22.00
2018-09-20T09:26:50.914Z,22.10
2018-09-20T09:29:19.079Z,22.17
2018-09-20T09:31:47.275Z,22.20
2018-09-20T09:34:15.550Z,22.24
2018-09-20T09:36:43.680Z,22.30
2018-09-20T09:39:13.045Z,22.41
2018-09-20T09:41:41.610Z,22.46
2018-09-20T09:44:09.788Z,22.51
2018-09-20T09:46:38.007Z,22.51
2018-09-20T09:49:06.226Z,22.50
2018-09-20T09:51:34.395Z,22.49
2018-09-20T09:54:02.591Z,22.52
2018-09-20T09:56:30.963Z,22.64
2018-09-20T09:58:59.186Z,22.75
2018-09-20T10:01:27.342Z,22.91
2018-09-20T10:03:55.589Z,23.10
2018-09-20T10:06:23.811Z,23.26
2018-09-20T10:08:52.008Z,23.38
2018-09-20T10:11:20.182Z,23.50
2018-09-20T10:13:48.426Z,23.62
2018-09-20T10:16:16.546Z,23.69
2018-09-20T10:18:44.787Z,23.77
2018-09-20T10:21:12.976Z,23.84
2018-09-20T10:23:41.171Z,23.87
2018-09-20T10:26:09.380Z,23.98
2018-09-20T10:28:37.569Z,24.10
2018-09-20T10:31:05.763Z,24.17
2018-09-20T10:33:33.932Z,24.22
2018-09-20T10:36:02.126Z,24.38
2018-09-20T10:38:30.322Z,24.60
2018-09-20T10:40:58.509Z,24.80
2018-09-20T10:43:26.699Z,24.87
2018-09-20T10:45:54.895Z,24.92
2018-09-20T10:48:23.090Z,25.06
2018-09-20T10:50:51.315Z,25.15
2018-09-20T10:53:19.539Z,25.23
2018-09-20T10:55:47.735Z,25.30
2018-09-20T10:58:15.963Z,25.34
2018-09-20T11:00:44.152Z,25.42
2018-09-20T11:03:12.374Z,25.45
2018-09-20T11:05:40.495Z,25.46
2018-09-20T11:08:08.667Z,25.48
2018-09-20T11:10:36.923Z,25.51
2018-09-20T11:13:05.038Z,25.47
2018-09-20T11:15:33.199Z,25.57
2018-09-20T11:18:01.388Z,25.68
2018-09-20T11:20:29.580Z,25.76
2018-09-20T11:22:57.764Z,25.86
2018-09-20T11:25:26.015Z,25.92
2018-09-20T11:27:54.198Z,25.84
2018-09-20T11:30:22.400Z,25.68
2018-09-20T11:32:50.563Z,25.57
2018-09-20T11:35:18.756Z,25.48
2018-09-20T11:37:46.938Z,25.48
2018-09-20T11:40:15.099Z,25.56
2018-09-20T11:42:43.280Z,25.77
2018-09-20T11:45:11.452Z,26.02
2018-09-20T11:47:39.667Z,26.24
2018-09-20T11:50:07.919Z,26.47
2018-09-20T11:52:36.176Z,26.68
2018-09-20T11:55:04.416Z,26.83
2018-09-20T11:57:32.604Z,26.99
2018-09-20T12:00:00.937Z,27.09
2018-09-20T12:02:29.003Z,27.20
2018-09-20T12:04:57.162Z,27.44
2018-09-20T12:07:25.338Z,27.56
2018-09-20T12:09:53.507Z,27.70
2018-09-20T12:12:21.754Z,27.73
2018-09-20T12:14:49.924Z,27.79
2018-09-20T12:17:18.114Z,27.86
2018-09-20T12:19:46.304Z,27.92
2018-09-20T12:22:14.559Z,28.05
2018-09-20T12:24:42.720Z,28.17
2018-09-20T12:27:10.899Z,28.38
2018-09-20T12:29:39.092Z,28.56
2018-09-20T12:32:13.972Z,28.69
2018-09-20T12:34:42.067Z,28.81
2018-09-20T12:37:10.284Z,28.96
2018-09-20T12:39:38.464Z,29.08
2018-09-20T12:42:06.662Z,29.17
2018-09-20T12:44:34.906Z,29.11
2018-09-20T12:47:03.135Z,29.22
2018-09-20T12:49:31.351Z,29.47
2018-09-20T12:51:59.566Z,29.64
2018-09-20T12:54:27.758Z,29.85
2018-09-20T12:56:55.934Z,30.11
2018-09-20T12:59:24.124Z,30.31
2018-09-20T13:01:52.309Z,30.53
2018-09-20T13:04:20.500Z,30.83
2018-09-20T13:06:48.931Z,31.07
2018-09-20T13:09:17.118Z,31.28
2018-09-20T13:11:45.339Z,31.35
2018-09-20T13:14:13.623Z,31.34
2018-09-20T13:16:41.806Z,31.45
2018-09-20T13:19:10.016Z,31.57
2018-09-20T13:21:38.232Z,31.61
2018-09-20T13:24:06.407Z,31.48
2018-09-20T13:26:34.608Z,31.03
2018-09-20T13:29:02.776Z,30.33
2018-09-20T13:31:31.000Z,29.86
2018-09-20T13:33:59.189Z,29.68
2018-09-20T13:36:27.374Z,29.46
2018-09-20T13:38:55.529Z,29.31
2018-09-20T13:41:23.715Z,29.19
2018-09-20T13:43:51.923Z,29.04
2018-09-20T13:46:20.083Z,29.09
2018-09-20T13:48:48.352Z,29.51
2018-09-20T13:51:16.526Z,30.06
2018-09-20T13:53:44.691Z,30.43
2018-09-20T13:56:12.907Z,30.62
2018-09-20T13:58:45.259Z,30.59
2018-09-20T14:01:13.444Z,30.35
2018-09-20T14:03:41.636Z,30.10
2018-09-20T14:06:09.782Z,29.78
2018-09-20T14:08:37.971Z,29.42
2018-09-20T14:11:06.172Z,29.06
2018-09-20T14:13:34.359Z,28.78
2018-09-20T14:16:02.555Z,28.53
2018-09-20T14:18:30.804Z,28.38
2018-09-20T14:20:59.024Z,28.26
2018-09-20T14:23:27.214Z,28.19
2018-09-20T14:25:55.377Z,28.12
2018-09-20T14:28:23.796Z,28.02
2018-09-20T14:30:52.075Z,27.93
2018-09-20T14:33:20.256Z,27.88
2018-09-20T14:35:48.575Z,27.85
2018-09-20T14:38:16.767Z,27.82
2018-09-20T14:40:44.987Z,27.78
2018-09-20T14:43:13.531Z,27.74
2018-09-20T14:45:41.748Z,27.73
2018-09-20T14:48:10.024Z,27.67
2018-09-20T14:50:38.221Z,27.63
2018-09-20T14:53:06.449Z,27.61
2018-09-20T14:55:34.663Z,27.55
2018-09-20T14:58:02.822Z,27.51
2018-09-20T15:00:31.002Z,27.49
2018-09-20T15:02:59.263Z,27.49
2018-09-20T15:05:27.434Z,27.46
2018-09-20T15:07:55.622Z,27.44
2018-09-20T15:10:23.871Z,27.42
2018-09-20T15:12:52.043Z,27.39
2018-09-20T15:15:20.285Z,27.40
2018-09-20T15:17:48.420Z,27.40
2018-09-20T15:20:16.680Z,27.40
2018-09-20T15:22:44.850Z,27.37
2018-09-20T15:25:13.123Z,27.36
2018-09-20T15:27:41.282Z,27.34
2018-09-20T15:30:09.507Z,27.33
2018-09-20T15:32:37.769Z,27.29
2018-09-20T15:35:05.959Z,27.29
2018-09-20T15:37:34.167Z,27.27
2018-09-20T15:40:02.412Z,27.27
2018-09-20T15:42:30.615Z,27.25
2018-09-20T15:44:58.795Z,27.22
2018-09-20T15:47:27.043Z,27.19
2018-09-20T15:49:55.151Z,27.17
2018-09-20T15:52:23.501Z,27.15
2018-09-20T15:54:51.663Z,27.12
2018-09-20T15:57:19.831Z,27.09
2018-09-20T15:59:48.015Z,27.04
2018-09-20T16:02:16.204Z,27.01
2018-09-20T16:04:44.387Z,27.00
2018-09-20T16:07:12.659Z,26.93
2018-09-20T16:09:40.863Z,26.88
2018-09-20T16:12:09.028Z,26.89
2018-09-20T16:14:37.242Z,26.90
2018-09-20T16:17:05.443Z,26.87
2018-09-20T16:19:33.603Z,26.85
2018-09-20T16:22:01.812Z,26.81
2018-09-20T16:24:30.047Z,26.76
2018-09-20T16:26:58.323Z,26.71
2018-09-20T16:29:37.166Z,26.65
2018-09-20T16:32:40.311Z,26.56
2018-09-20T16:35:18.158Z,26.49
2018-09-20T16:38:00.522Z,26.45
2018-09-20T16:40:33.567Z,26.41
2018-09-20T16:43:01.890Z,26.36
2018-09-20T16:45:30.104Z,26.33
2018-09-20T16:47:58.311Z,26.30
2018-09-20T16:50:26.490Z,26.26
2018-09-20T16:52:54.697Z,26.22
2018-09-20T16:55:22.835Z,26.18
2018-09-20T16:57:51.040Z,26.12
2018-09-20T17:00:19.302Z,26.08
2018-09-20T17:02:47.468Z,25.98
2018-09-20T17:05:15.722Z,25.87
2018-09-20T17:07:43.819Z,25.79
2018-09-20T17:10:11.986Z,25.68
2018-09-20T17:12:40.199Z,25.62
2018-09-20T17:15:08.555Z,25.59
2018-09-20T17:17:36.622Z,25.57
2018-09-20T17:20:04.914Z,25.58
2018-09-20T17:22:33.094Z,25.57
2018-09-20T17:25:01.266Z,25.56
2018-09-20T17:27:29.480Z,25.53
2018-09-20T17:29:57.695Z,25.50
2018-09-20T17:32:25.883Z,25.48
2018-09-20T17:34:54.327Z,25.45
2018-09-20T17:37:23.275Z,25.41
2018-09-20T17:39:52.552Z,25.38
2018-09-20T17:42:22.249Z,25.34
2018-09-20T17:44:50.432Z,25.28
2018-09-20T17:47:18.629Z,25.24
2018-09-20T17:49:46.843Z,25.20
2018-09-20T17:52:15.323Z,25.16
2018-09-20T17:54:44.200Z,25.12
2018-09-20T17:57:12.939Z,25.11
2018-09-20T17:59:41.160Z,25.08
2018-09-20T18:02:09.343Z,25.04
2018-09-20T18:04:37.615Z,25.00
2018-09-20T18:07:05.948Z,24.96
2018-09-20T18:09:34.107Z,24.92
2018-09-20T18:12:02.366Z,24.87
2018-09-20T18:14:30.510Z,24.83
2018-09-20T18:16:58.671Z,24.80
2018-09-20T18:19:26.877Z,24.79
2018-09-20T18:21:55.051Z,24.77
2018-09-20T18:24:23.489Z,24.74
2018-09-20T18:26:51.686Z,24.64
2018-09-20T18:29:19.896Z,24.69
2018-09-20T18:31:48.159Z,24.68
2018-09-20T18:34:16.392Z,24.67
2018-09-20T18:36:44.521Z,24.65
2018-09-20T18:39:13.918Z,24.63
2018-09-20T18:41:43.927Z,24.60
2018-09-20T18:44:12.126Z,24.57
2018-09-20T18:46:40.308Z,24.55
2018-09-20T18:49:08.739Z,24.51
2018-09-20T18:51:37.122Z,24.50
2018-09-20T18:54:05.371Z,24.47
2018-09-20T18:56:33.542Z,24.45
2018-09-20T18:59:02.065Z,24.42
2018-09-20T19:01:33.470Z,24.37
2018-09-20T19:04:01.685Z,24.33
2018-09-20T19:06:29.819Z,24.29
2018-09-20T19:08:57.999Z,24.26
2018-09-20T19:11:26.175Z,24.24
2018-09-20T19:13:54.363Z,24.21
2018-09-20T19:16:22.711Z,24.20
2018-09-20T19:18:50.887Z,24.17
2018-09-20T19:21:19.164Z,24.16
2018-09-20T19:23:47.288Z,24.14
2018-09-20T19:26:15.911Z,24.12
2018-09-20T19:28:44.324Z,24.10
2018-09-20T19:31:12.535Z,24.07
2018-09-20T19:33:40.731Z,24.04
2018-09-20T19:36:08.928Z,24.02
2018-09-20T19:38:37.146Z,23.96
2018-09-20T19:41:05.523Z,23.99
2018-09-20T19:43:33.795Z,23.98
2018-09-20T19:46:01.952Z,23.99
2018-09-20T19:48:30.200Z,23.96
2018-09-20T19:50:58.364Z,23.95
2018-09-20T19:53:26.534Z,23.97
2018-09-20T19:55:55.144Z,23.96
2018-09-20T19:58:23.298Z,23.93
2018-09-20T20:00:51.631Z,23.96
2018-09-20T20:06:54.559Z,23.92
2018-09-20T20:09:22.750Z,23.90
2018-09-20T20:11:50.903Z,23.89
2018-09-20T20:14:19.083Z,23.89
2018-09-20T20:16:47.308Z,23.83
2018-09-20T20:19:15.501Z,23.76
2018-09-20T20:21:43.658Z,23.72
2018-09-20T20:24:11.966Z,23.70
2018-09-20T20:26:41.602Z,23.65
2018-09-20T20:29:09.927Z,23.62
2018-09-20T20:37:19.475Z,23.66
2018-09-20T20:39:47.689Z,23.66
2018-09-20T20:42:15.990Z,23.62
2018-09-20T20:44:44.315Z,23.65
2018-09-20T20:47:12.718Z,23.62
2018-09-20T20:49:40.940Z,23.60
2018-09-20T20:52:09.521Z,23.57
2018-09-20T20:54:37.832Z,23.52
2018-09-20T20:57:06.177Z,23.49
2018-09-20T20:59:34.589Z,23.47
2018-09-20T21:02:02.904Z,23.46
2018-09-20T21:04:31.212Z,23.45
2018-09-20T21:06:59.488Z,23.44
2018-09-20T21:09:27.683Z,23.43
2018-09-20T21:11:56.023Z,23.39
2018-09-20T21:14:24.394Z,23.36
2018-09-20T21:16:52.660Z,23.32
2018-09-20T21:19:20.971Z,23.31
2018-09-20T21:21:49.167Z,23.28
2018-09-20T21:24:17.404Z,23.26
2018-09-20T21:26:45.591Z,23.23
2018-09-20T21:29:13.812Z,23.19
2018-09-20T21:31:42.003Z,23.17
2018-09-20T21:34:10.201Z,23.14
2018-09-20T21:36:38.422Z,23.12
2018-09-20T21:39:11.318Z,23.08
2018-09-20T21:41:40.212Z,23.05
2018-09-20T21:44:08.507Z,22.96
2018-09-20T21:46:36.740Z,22.99
2018-09-20T21:49:04.940Z,22.98
2018-09-20T21:51:33.131Z,22.98
2018-09-20T21:54:01.332Z,23.00
2018-09-20T21:56:29.620Z,23.03
2018-09-20T21:58:57.944Z,23.05
2018-09-20T22:01:26.169Z,23.07
2018-09-20T22:03:54.371Z,23.07
2018-09-20T22:06:22.574Z,23.07
2018-09-20T22:08:50.771Z,23.07
2018-09-20T22:11:18.984Z,23.06
2018-09-20T22:13:47.204Z,23.06
2018-09-20T22:16:15.383Z,23.06
2018-09-20T22:18:43.598Z,23.04
2018-09-20T22:21:11.806Z,23.04
2018-09-20T22:23:40.044Z,23.01
2018-09-20T22:26:08.222Z,22.99
2018-09-20T22:28:36.425Z,22.99
2018-09-20T22:31:04.603Z,22.96
2018-09-20T22:33:32.815Z,22.93
2018-09-20T22:36:01.032Z,22.91
2018-09-20T22:38:29.264Z,22.88
2018-09-20T22:40:57.454Z,22.85
2018-09-20T22:43:25.664Z,22.82
2018-09-20T22:45:53.860Z,22.81
2018-09-20T22:48:22.044Z,22.74
2018-09-20T22:50:50.235Z,22.78
2018-09-20T22:53:18.464Z,22.76
2018-09-20T22:55:46.741Z,22.75
2018-09-20T22:58:14.979Z,22.72
2018-09-20T23:00:43.195Z,22.71
2018-09-20T23:03:11.383Z,22.69
2018-09-20T23:05:39.568Z,22.67
2018-09-20T23:08:07.800Z,22.66
2018-09-20T23:10:36.031Z,22.63
2018-09-20T23:13:04.224Z,22.59
2018-09-20T23:15:32.413Z,22.58
2018-09-20T23:18:00.686Z,22.56
2018-09-20T23:20:28.920Z,22.56
2018-09-20T23:22:57.139Z,22.54
2018-09-20T23:25:25.327Z,22.52
2018-09-20T23:27:53.520Z,22.52
2018-09-20T23:30:21.791Z,22.51
2018-09-20T23:32:49.998Z,22.50
2018-09-20T23:35:18.215Z,22.48
2018-09-20T23:37:46.424Z,22.45
2018-09-20T23:40:14.611Z,22.42
2018-09-20T23:42:42.892Z,22.39
2018-09-20T23:45:11.084Z,22.35
2018-09-20T23:47:39.335Z,22.32
2018-09-20T23:50:07.580Z,22.30
2018-09-20T23:52:35.797Z,22.29
2018-09-20T23:55:04.014Z,22.27
2018-09-20T23:57:32.204Z,22.23
